WetterOnline ( https://www.wetteronline.de )

Wetter aktuell Ettal

Aktuelles Wetter: Garmisch-Partenkirchen (719m)

6-stündlich | Neueste Meldungen
Ortszeit Temperatur Wetter
So, 05.07. 8:00 16.7° C wolkenlos
So, 05.07. 2:00 11.5° C wolkenlos
Sa, 04.07. 20:00 21.0° C fast wolkenlos
Sa, 04.07. 14:00 22.4° C leicht bewölkt
Sa, 04.07. 8:00 13.0° C bedeckt
Sa, 04.07. 2:00 12.3° C bedeckt
Fr, 03.07. 20:00 16.0° C bedeckt
Fr, 03.07. 14:00 16.5° C bedeckt
Ortszeit Temperatur Wetter
So, 05.07. 13:30 24.9° C bedeckt
So, 05.07. 13:20 24.9° C bedeckt
So, 05.07. 13:10 25.5° C bedeckt
So, 05.07. 13:00 25.1° C bedeckt
So, 05.07. 12:50 25.1° C bedeckt
So, 05.07. 12:40 24.7° C bewölkt
So, 05.07. 12:30 25.2° C bewölkt
So, 05.07. 12:00 24.4° C wolkig
So, 05.07. 11:30 23.7° C wolkenlos
So, 05.07. 11:00 23.9° C wolkenlos
So, 05.07. 10:30 23.6° C wolkenlos
Ortszeit Relative Feuchte Sichtweite
So, 05.07. 8:00 76% 60 km
So, 05.07. 2:00 97% 30 km
Sa, 04.07. 20:00 58% >70 km
Sa, 04.07. 14:00 50% 55 km
Sa, 04.07. 8:00 85% 50 km
Sa, 04.07. 2:00 97% 35 km
Fr, 03.07. 20:00 84% 65 km
Fr, 03.07. 14:00 73% 65 km
Ortszeit Relative Feuchte Sichtweite
So, 05.07. 13:30 46% >70 km
So, 05.07. 13:20 46% -
So, 05.07. 13:10 45% -
So, 05.07. 13:00 45% 60 km
So, 05.07. 12:50 45% -
So, 05.07. 12:40 44% -
So, 05.07. 12:30 43% 60 km
So, 05.07. 12:00 45% >70 km
So, 05.07. 11:30 43% 60 km
So, 05.07. 11:00 43% >70 km
So, 05.07. 10:30 46% >70 km
Ortszeit Niederschlagsmenge Niederschlagsart
So, 05.07. 8:00 0.0 l/m2 in 12 Std. -
So, 05.07. 2:00 0.0 l/m2 in 6 Std. -
Sa, 04.07. 20:00 0.0 l/m2 in 12 Std. -
Sa, 04.07. 14:00 0.0 l/m2 in 6 Std. -
Sa, 04.07. 8:00 0.0 l/m2 in 12 Std. -
Sa, 04.07. 2:00 0.0 l/m2 in 6 Std. -
Fr, 03.07. 20:00 4 l/m2 in 12 Std. -
Fr, 03.07. 14:00 4 l/m2 in 6 Std. Regen
Ortszeit Niederschlagsmenge Niederschlagsart
So, 05.07. 13:30 0.0 l/m2 in 1 Std. -
So, 05.07. 13:20 keine Meldung -
So, 05.07. 13:10 keine Meldung -
So, 05.07. 13:00 0.0 l/m2 in 1 Std. -
So, 05.07. 12:50 keine Meldung -
So, 05.07. 12:40 keine Meldung -
So, 05.07. 12:30 0.0 l/m2 in 1 Std. -
So, 05.07. 12:00 0.0 l/m2 in 1 Std. -
So, 05.07. 11:30 0.0 l/m2 in 1 Std. -
So, 05.07. 11:00 0.0 l/m2 in 1 Std. -
So, 05.07. 10:30 0.0 l/m2 in 1 Std. -
Ortszeit Stärke Spitze Richtung
km/h Bft. km/h Grad Sektor
So, 05.07. 8:00 4 1 11 190° S
So, 05.07. 2:00 4 1 11 230° SW
Sa, 04.07. 20:00 6 1 30 30° NO
Sa, 04.07. 14:00 13 3 30 40° NO
Sa, 04.07. 8:00 6 1 11 230° SW
Sa, 04.07. 2:00 2 1 7 250° W
Fr, 03.07. 20:00 2 1 9 270° W
Fr, 03.07. 14:00 4 1 22 230° SW
Ortszeit Stärke Spitze Richtung
km/h Bft. km/h Grad Sektor
So, 05.07. 13:30 11 2 25 40° NO
So, 05.07. 13:20 11 2 - 40° NO
So, 05.07. 13:10 11 2 - 30° NO
So, 05.07. 13:00 11 2 22 40° NO
So, 05.07. 12:50 11 2 - 40° NO
So, 05.07. 12:40 11 2 - 40° NO
So, 05.07. 12:30 11 2 20 50° NO
So, 05.07. 12:00 13 3 22 40° NO
So, 05.07. 11:30 11 2 18 60° NO
So, 05.07. 11:00 6 1 9 130° SO
So, 05.07. 10:30 4 1 11 150° SO
Ortszeit Untergrenze Bedeckung Gattung
total tief tief mittel hoch
So, 05.07. 8:00 - 0/8 0/8 - - -
So, 05.07. 2:00 - 0/8 0/8 - - -
Sa, 04.07. 20:00 1470 m 0/8 0/8 - - -
Sa, 04.07. 14:00 8100 m 6/8 0/8 - - -
Sa, 04.07. 8:00 2100 m 8/8 8/8 - - -
Sa, 04.07. 2:00 2100 m 8/8 8/8 - - -
Fr, 03.07. 20:00 1800 m 8/8 8/8 - - -
Fr, 03.07. 14:00 1050 m 8/8 8/8 - - -
Ortszeit Bedeckungsgrad in Achtel und Wolkenuntergrenze
So, 05.07. 13:30 8(2100m)
So, 05.07. 13:20 8(2100m)
So, 05.07. 13:10 8(2100m)
So, 05.07. 13:00 8(2100m)
So, 05.07. 12:50 8(2100m)
So, 05.07. 12:40 7(2400m)
So, 05.07. 12:30 7(2100m)
So, 05.07. 12:00 7(2100m)
So, 05.07. 11:30 1(2100m)
So, 05.07. 11:00 keine Wolken
So, 05.07. 10:30 keine Wolken
Ortszeit Luftdruck NN (hPa) Tendenz (hPa in 3 Std.)
So, 05.07. 8:00 1020 - 0,5
So, 05.07. 2:00 1022 + 0,5
Sa, 04.07. 20:00 1017 + 0,3
Sa, 04.07. 14:00 1017 - 0,7
Sa, 04.07. 8:00 1022 + 0,5
Sa, 04.07. 2:00 1021 - 0,2
Fr, 03.07. 20:00 1019 + 0,1
Fr, 03.07. 14:00 1019 + 0,2
Ortszeit Luftdruck NN (hPa) Tendenz (hPa in 3 Std.)
So, 05.07. 13:30 1015 - 1,1
So, 05.07. 13:20 1015 keine Meldung
So, 05.07. 13:10 1015 keine Meldung
So, 05.07. 13:00 1015 - 1,0
So, 05.07. 12:50 1015 keine Meldung
So, 05.07. 12:40 1016 keine Meldung
So, 05.07. 12:30 1016 - 1,2
So, 05.07. 12:00 1016 - 1,0
So, 05.07. 11:30 1017 - 0,9
So, 05.07. 11:00 1017 - 1,0
So, 05.07. 10:30 1017 - 1,1
Ortszeit Schneehöhe (cm)
So, 05.07. 8:00 -
So, 05.07. 2:00 -
Sa, 04.07. 20:00 -
Sa, 04.07. 14:00 -
Sa, 04.07. 8:00 -
Sa, 04.07. 2:00 -
Fr, 03.07. 20:00 -
Fr, 03.07. 14:00 -
Ortszeit Schneehöhe (cm)
So, 05.07. 13:30 -
So, 05.07. 13:20 -
So, 05.07. 13:10 -
So, 05.07. 13:00 -
So, 05.07. 12:50 -
So, 05.07. 12:40 -
So, 05.07. 12:30 -
So, 05.07. 12:00 -
So, 05.07. 11:30 -
So, 05.07. 11:00 -
So, 05.07. 10:30 -
Link zu dieser Seite / Seite empfehlen

Das Wetter in ...